URSSURKK

Guest
Details From URSS - Sochi
To URKK - Pashkovskiy
Flight Number -
Tags Real
Created
Modified
Stats Distance 110 nm / 204 km
Max Altitude 0 ft / 0 m
Waypoints 4
Social Downloads 15
Likes 0
Share VATSIM

Download

Looking for another format? Having issues loading an existing format? Contact us
Advertisement - Login to hide

Notes

None

Route

URSS LA LEKPI URKK

ID Type Via Altitude Latitude Longitude Leg Dist Tot Dist Heading (true) Name
O URSS APT - 0 ft / 0 m 43.43576˚ 39.94578˚ - 0 nm - Sochi
LA NDB - 0 ft / 0 m 43.91667˚ 39.33333˚ 39 nm 39 nm 318° / 317° -
LEKPI FIX - 0 ft / 0 m 44.53333˚ 39.48333˚ 37 nm 76 nm 10° / 10° -
O URKK APT - 0 ft / 0 m 45.02906˚ 39.14142˚ 33 nm 110 nm 334° / 334° -

Altitude Profile

Advertisement - Login to hide

URSS

Details ICAO URSS (AER)
Name Sochi
Region Russia
Timezone Europe/Moscow (UTC+3.0)
Stats Elevation 89 ft / 27 m (AMSL)
Location 43.444749° 39.947302°
Runways 2
Magnetic Variation 6.962° E

METAR

URSS 112330Z 08006MPS 9999 NSC 06/00 Q1027 R06/090070 R02/090070 NOSIG RMK R02/05004MPS QFE769

Decode

TAF

TAF URSS 111955Z 1121/1221 05007MPS 9999 SCT100 BECMG 1209/1210 VRB01MPS BECMG 1214/1215 05007MPS

Decode

Departure Runways

ID Width Length Bearing (true) Bearing (mag) Surface Threshold Offset Overrun Length
02 161 ft / 49 m 7,267 ft / 2,215 m 28.98° 22.02° Concrete 0 ft / 0 m 0 ft / 0 m
06 164 ft / 50 m 9,531 ft / 2,905 m 64.90° 57.94° Concrete 262 ft / 80 m 0 ft / 0 m
20 161 ft / 49 m 7,267 ft / 2,215 m 208.99° 202.03° Concrete 0 ft / 0 m 0 ft / 0 m
24 164 ft / 50 m 9,531 ft / 2,905 m 244.92° 237.96° Concrete 0 ft / 0 m 0 ft / 0 m

URKK

Details ICAO URKK (KRR)
Name PASHKOVSKIY
Region Russia
Timezone Europe/Moscow (UTC+3.0)
Stats Elevation 118 ft / 36 m (AMSL)
Location 45.034644° 39.170454°
Runways 2
Magnetic Variation 7.355° E

METAR

URKK 112330Z 14003MPS 9999 FEW/// 05/03 Q1024 R23L/CLRD70 NOSIG RMK QFE765

Decode

TAF

TAF URKK 111956Z 1121/1221 15003G08MPS 9999 BKN020 TEMPO 1121/1206 3100 BR BKN011 TEMPO 1206/1215 20006G12MPS

Decode

Destination Runways

ID Width Length Bearing (true) Bearing (mag) Surface Threshold Offset Overrun Length
05L 160 ft / 49 m 7,177 ft / 2,187 m 52.37° 45.02° Asphalt 0 ft / 0 m 160 ft / 49 m
05R 145 ft / 44 m 9,822 ft / 2,994 m 52.45° 45.10° Concrete 0 ft / 0 m 160 ft / 49 m
23L 145 ft / 44 m 9,822 ft / 2,994 m 232.47° 225.12° Concrete 0 ft / 0 m 160 ft / 49 m
23R 160 ft / 49 m 7,177 ft / 2,187 m 232.38° 225.03° Asphalt 0 ft / 0 m 160 ft / 49 m

Popular Alternatives